Oval Lp No.11 — JL6306 — position and weather

sailwx.info

Track history (hours):
 
Tides and Currents Weather Stations Pressure Air Temp Water Temp Dewpoint Dewpoint Depression Visibility Wind Speed Wind Dir Waves Ship Positions

Oval Lp No.11

Last reported at 2016-Jun-22 05:29 UTC. Time now 2016-Jun-28 13:23 UTC.
Position N 35°06' E 139°40'.

Length 67 m; draft 3.6 m.

Type: Ship (hazmat cat A). MMSI: 431500366.

Date/timePositionNaut miles runAvg speedWind from/ knotsBaromVisibWave heightAir tempDewpointWater temp
2016-Jun-22 05:29N 35°06' E 139°40'1011.0
2016-Jun-22 04:33N 35°15' E 139°46'1010.3
2016-Jun-22 03:33N 35°25' E 139°44'1212.0
2016-Jun-22 02:33N 35°32' E 139°57'7 6.9
2016-Jun-22 01:33N 35°33' E 140°05'0 0.0
2016-Jun-22 00:33N 35°33' E 140°05'0 0.0
2016-Jun-21 23:33N 35°33' E 140°05'0 0.4
2016-Jun-21 22:33N 35°33' E 140°05'4 4.0
2016-Jun-21 21:33N 35°33' E 140°00'1010.4
2016-Jun-21 20:34N 35°27' E 139°50'1010.0
2016-Jun-21 19:33N 35°18' E 139°45'1110.7
2016-Jun-21 18:34N 35°07' E 139°46'1610.9
2016-Jun-21 17:06N 34°57' E 139°30'6 0.2
2016-Jun-20 08:33N 35°03' E 139°33'1111.0
2016-Jun-20 07:30N 35°10' E 139°44'9 9.6
2016-Jun-20 06:33N 35°19' E 139°43'9 9.2
2016-Jun-20 05:33N 35°27' E 139°48'1110.9
2016-Jun-20 04:33N 35°32' E 139°60'4 3.9
2016-Jun-20 03:29N 35°33' E 140°05'0 0.0
2016-Jun-20 02:32N 35°33' E 140°05'0 0.0
2016-Jun-20 01:32N 35°33' E 140°05'0 0.0
2016-Jun-20 00:26N 35°33' E 140°05'0 0.0
2016-Jun-19 23:20N 35°33' E 140°05'0 0.6
2016-Jun-19 22:33N 35°33' E 140°05'9 9.1
2016-Jun-19 21:33N 35°29' E 139°55'0 0.1
2016-Jun-19 20:28N 35°29' E 139°55'0 0.0
2016-Jun-19 19:31N 35°29' E 139°55'0 0.0
2016-Jun-19 18:31N 35°29' E 139°55'0 0.0
2016-Jun-19 17:25N 35°29' E 139°55'0 0.0
2016-Jun-19 16:28N 35°29' E 139°55'0 0.0
2016-Jun-19 15:28N 35°29' E 139°55'5 5.5
2016-Jun-19 14:33N 35°27' E 139°50'1010.4
2016-Jun-19 13:33N 35°17' E 139°46'1111.3
2016-Jun-19 12:33N 35°05' E 139°44'24210.0
2016-Jun-18 12:30N 34°04' E 134°60'1110.9
2016-Jun-18 11:32N 34°15' E 134°58'9 8.9
2016-Jun-18 10:33N 34°23' E 135°02'1010.5
2016-Jun-18 09:33N 34°29' E 135°12'1111.3
2016-Jun-18 08:33N 34°36' E 135°23'3 3.2
2016-Jun-18 07:33N 34°34' E 135°26'0 0.0
2016-Jun-18 06:33N 34°34' E 135°26'0 0.0
2016-Jun-18 05:33N 34°34' E 135°26'3 3.0
2016-Jun-18 04:23N 34°35' E 135°22'3 1.1
2016-Jun-18 01:13N 34°34' E 135°26'0 0.1
2016-Jun-18 00:33N 34°34' E 135°26'6 5.5
2016-Jun-17 23:33N 34°34' E 135°19'1211.6
2016-Jun-17 22:33N 34°25' E 135°09'1211.7
2016-Jun-17 21:33N 34°17' E 134°59'1211.9
2016-Jun-17 20:33N 34°05' E 135°01'241 5.4
2016-Jun-15 23:33N 35°09' E 139°44'1110.6
2016-Jun-15 22:33N 35°20' E 139°43'1010.5
2016-Jun-15 21:33N 35°29' E 139°50'5 4.5
2016-Jun-15 20:31N 35°29' E 139°55'0 0.0
2016-Jun-15 19:31N 35°29' E 139°55'0 0.0
2016-Jun-15 18:28N 35°29' E 139°55'0 0.0
2016-Jun-15 17:31N 35°29' E 139°55'0 0.0
2016-Jun-15 16:31N 35°29' E 139°55'0 0.0
2016-Jun-15 15:31N 35°29' E 139°55'0 0.0
2016-Jun-15 14:31N 35°29' E 139°55'0 0.0
2016-Jun-15 13:31N 35°29' E 139°55'0 0.0
2016-Jun-15 12:31N 35°29' E 139°55'0 0.0
2016-Jun-15 11:19N 35°29' E 139°55'0 0.0
2016-Jun-15 10:25N 35°29' E 139°55'0 0.0
2016-Jun-15 09:31N 35°29' E 139°55'0 0.0
2016-Jun-15 08:31N 35°29' E 139°55'0 0.0
2016-Jun-15 07:31N 35°29' E 139°55'0 0.0
2016-Jun-15 06:31N 35°29' E 139°55'0 0.2
2016-Jun-15 05:33N 35°29' E 139°56'8 8.0
2016-Jun-15 04:31N 35°33' E 140°05'0 0.0
2016-Jun-15 03:31N 35°33' E 140°05'0 0.0
2016-Jun-15 02:28N 35°33' E 140°05'0 0.0
2016-Jun-15 01:16N 35°33' E 140°05'1 1.2
2016-Jun-15 00:33N 35°33' E 140°05'0 0.1
2016-Jun-14 23:28N 35°34' E 140°05'6 6.6
2016-Jun-14 22:33N 35°32' E 139°58'1110.9
2016-Jun-14 21:33N 35°25' E 139°47'10 9.6
2016-Jun-14 20:33N 35°16' E 139°47'1110.7
2016-Jun-14 19:33N 35°05' E 139°44'1611.2
2016-Jun-14 18:09N 34°55' E 139°28'  
Track history (hours):
 
Tides and Currents Weather Stations Pressure Air Temp Water Temp Dewpoint Dewpoint Depression Visibility Wind Speed Wind Dir Waves Ship Positions

Oval Lp No.11

Last reported at 2016-Jun-22 05:29 UTC. Time now 2016-Jun-28 13:23 UTC.
Position N 35°06' E 139°40'.

Length 67 m; draft 3.6 m.

Type: Ship (hazmat cat A). MMSI: 431500366.

Date/timePositionNaut miles runAvg speedWind from/ knotsBaromVisibWave heightAir tempDewpointWater temp
2016-Jun-22 05:29N 35°06' E 139°40'1011.0
2016-Jun-22 04:33N 35°15' E 139°46'1010.3
2016-Jun-22 03:33N 35°25' E 139°44'1212.0
2016-Jun-22 02:33N 35°32' E 139°57'7 6.9
2016-Jun-22 01:33N 35°33' E 140°05'0 0.0
2016-Jun-22 00:33N 35°33' E 140°05'0 0.0
2016-Jun-21 23:33N 35°33' E 140°05'0 0.4
2016-Jun-21 22:33N 35°33' E 140°05'4 4.0
2016-Jun-21 21:33N 35°33' E 140°00'1010.4
2016-Jun-21 20:34N 35°27' E 139°50'1010.0
2016-Jun-21 19:33N 35°18' E 139°45'1110.7
2016-Jun-21 18:34N 35°07' E 139°46'1610.9
2016-Jun-21 17:06N 34°57' E 139°30'6 0.2
2016-Jun-20 08:33N 35°03' E 139°33'1111.0
2016-Jun-20 07:30N 35°10' E 139°44'9 9.6
2016-Jun-20 06:33N 35°19' E 139°43'9 9.2
2016-Jun-20 05:33N 35°27' E 139°48'1110.9
2016-Jun-20 04:33N 35°32' E 139°60'4 3.9
2016-Jun-20 03:29N 35°33' E 140°05'0 0.0
2016-Jun-20 02:32N 35°33' E 140°05'0 0.0
2016-Jun-20 01:32N 35°33' E 140°05'0 0.0
2016-Jun-20 00:26N 35°33' E 140°05'0 0.0
2016-Jun-19 23:20N 35°33' E 140°05'0 0.6
2016-Jun-19 22:33N 35°33' E 140°05'9 9.1
2016-Jun-19 21:33N 35°29' E 139°55'0 0.1
2016-Jun-19 20:28N 35°29' E 139°55'0 0.0
2016-Jun-19 19:31N 35°29' E 139°55'0 0.0
2016-Jun-19 18:31N 35°29' E 139°55'0 0.0
2016-Jun-19 17:25N 35°29' E 139°55'0 0.0
2016-Jun-19 16:28N 35°29' E 139°55'0 0.0
2016-Jun-19 15:28N 35°29' E 139°55'5 5.5
2016-Jun-19 14:33N 35°27' E 139°50'1010.4
2016-Jun-19 13:33N 35°17' E 139°46'1111.3
2016-Jun-19 12:33N 35°05' E 139°44'24210.0
2016-Jun-18 12:30N 34°04' E 134°60'1110.9
2016-Jun-18 11:32N 34°15' E 134°58'9 8.9
2016-Jun-18 10:33N 34°23' E 135°02'1010.5
2016-Jun-18 09:33N 34°29' E 135°12'1111.3
2016-Jun-18 08:33N 34°36' E 135°23'3 3.2
2016-Jun-18 07:33N 34°34' E 135°26'0 0.0
2016-Jun-18 06:33N 34°34' E 135°26'0 0.0
2016-Jun-18 05:33N 34°34' E 135°26'3 3.0
2016-Jun-18 04:23N 34°35' E 135°22'3 1.1
2016-Jun-18 01:13N 34°34' E 135°26'0 0.1
2016-Jun-18 00:33N 34°34' E 135°26'6 5.5
2016-Jun-17 23:33N 34°34' E 135°19'1211.6
2016-Jun-17 22:33N 34°25' E 135°09'1211.7
2016-Jun-17 21:33N 34°17' E 134°59'1211.9
2016-Jun-17 20:33N 34°05' E 135°01'241 5.4
2016-Jun-15 23:33N 35°09' E 139°44'1110.6
2016-Jun-15 22:33N 35°20' E 139°43'1010.5
2016-Jun-15 21:33N 35°29' E 139°50'5 4.5
2016-Jun-15 20:31N 35°29' E 139°55'0 0.0
2016-Jun-15 19:31N 35°29' E 139°55'0 0.0
2016-Jun-15 18:28N 35°29' E 139°55'0 0.0
2016-Jun-15 17:31N 35°29' E 139°55'0 0.0
2016-Jun-15 16:31N 35°29' E 139°55'0 0.0
2016-Jun-15 15:31N 35°29' E 139°55'0 0.0
2016-Jun-15 14:31N 35°29' E 139°55'0 0.0
2016-Jun-15 13:31N 35°29' E 139°55'0 0.0
2016-Jun-15 12:31N 35°29' E 139°55'0 0.0
2016-Jun-15 11:19N 35°29' E 139°55'0 0.0
2016-Jun-15 10:25N 35°29' E 139°55'0 0.0
2016-Jun-15 09:31N 35°29' E 139°55'0 0.0
2016-Jun-15 08:31N 35°29' E 139°55'0 0.0
2016-Jun-15 07:31N 35°29' E 139°55'0 0.0
2016-Jun-15 06:31N 35°29' E 139°55'0 0.2
2016-Jun-15 05:33N 35°29' E 139°56'8 8.0
2016-Jun-15 04:31N 35°33' E 140°05'0 0.0
2016-Jun-15 03:31N 35°33' E 140°05'0 0.0
2016-Jun-15 02:28N 35°33' E 140°05'0 0.0
2016-Jun-15 01:16N 35°33' E 140°05'1 1.2
2016-Jun-15 00:33N 35°33' E 140°05'0 0.1
2016-Jun-14 23:28N 35°34' E 140°05'6 6.6
2016-Jun-14 22:33N 35°32' E 139°58'1110.9
2016-Jun-14 21:33N 35°25' E 139°47'10 9.6
2016-Jun-14 20:33N 35°16' E 139°47'1110.7
2016-Jun-14 19:33N 35°05' E 139°44'1611.2
2016-Jun-14 18:09N 34°55' E 139°28'  

Dump ship's entire track history